sensor_id;sensor_type;location;lat;lon;timestamp;pressure;altitude;pressure_sealevel;temperature;humidity
58534;BME280;44109;52.398;7.024;2023-05-09T00:01:21;101550.59;;;16.34;100.00
58534;BME280;44109;52.398;7.024;2023-05-09T00:03:52;101533.75;;;16.23;100.00
58534;BME280;44109;52.398;7.024;2023-05-09T00:06:20;101553.41;;;16.34;100.00
58534;BME280;44109;52.398;7.024;2023-05-09T00:08:48;101552.19;;;16.35;100.00
58534;BME280;44109;52.398;7.024;2023-05-09T00:11:15;101541.00;;;16.31;100.00
58534;BME280;44109;52.398;7.024;2023-05-09T00:13:43;101537.38;;;16.27;100.00
58534;BME280;44109;52.398;7.024;2023-05-09T00:16:12;101539.34;;;16.23;100.00
58534;BME280;44109;52.398;7.024;2023-05-09T00:18:40;101535.34;;;16.24;100.00
58534;BME280;44109;52.398;7.024;2023-05-09T00:21:09;101514.47;;;16.11;100.00
58534;BME280;44109;52.398;7.024;2023-05-09T00:23:37;101527.28;;;16.15;100.00
58534;BME280;44109;52.398;7.024;2023-05-09T00:26:04;101519.25;;;16.07;100.00
58534;BME280;44109;52.398;7.024;2023-05-09T00:28:35;101508.03;;;16.03;100.00
58534;BME280;44109;52.398;7.024;2023-05-09T00:31:04;101508.84;;;16.07;100.00
58534;BME280;44109;52.398;7.024;2023-05-09T00:33:33;101506.84;;;16.08;100.00
58534;BME280;44109;52.398;7.024;2023-05-09T00:36:01;101512.84;;;16.06;100.00
58534;BME280;44109;52.398;7.024;2023-05-09T00:38:29;101502.44;;;16.00;100.00
58534;BME280;44109;52.398;7.024;2023-05-09T00:40:57;101492.41;;;15.95;100.00
58534;BME280;44109;52.398;7.024;2023-05-09T00:43:25;101502.78;;;15.94;100.00
58534;BME280;44109;52.398;7.024;2023-05-09T00:45:52;101491.53;;;15.87;100.00
58534;BME280;44109;52.398;7.024;2023-05-09T00:48:20;101495.97;;;15.92;100.00
58534;BME280;44109;52.398;7.024;2023-05-09T00:50:49;101498.75;;;15.92;100.00
58534;BME280;44109;52.398;7.024;2023-05-09T00:53:20;101483.47;;;15.79;100.00
58534;BME280;44109;52.398;7.024;2023-05-09T00:55:48;101495.09;;;15.81;100.00
58534;BME280;44109;52.398;7.024;2023-05-09T00:58:16;101492.69;;;15.79;100.00
58534;BME280;44109;52.398;7.024;2023-05-09T01:00:45;101481.50;;;15.79;100.00
58534;BME280;44109;52.398;7.024;2023-05-09T01:03:13;101482.28;;;15.80;100.00
58534;BME280;44109;52.398;7.024;2023-05-09T01:05:53;101475.91;;;15.79;100.00
58534;BME280;44109;52.398;7.024;2023-05-09T01:08:43;101479.50;;;15.80;100.00
58534;BME280;44109;52.398;7.024;2023-05-09T01:11:22;101477.94;;;15.86;100.00
58534;BME280;44109;52.398;7.024;2023-05-09T01:14:03;101460.75;;;15.87;100.00
58534;BME280;44109;52.398;7.024;2023-05-09T01:16:41;101466.41;;;15.94;100.00
58534;BME280;44109;52.398;7.024;2023-05-09T01:19:34;101470.47;;;16.08;100.00
58534;BME280;44109;52.398;7.024;2023-05-09T01:22:17;101451.25;;;16.03;100.00
58534;BME280;44109;52.398;7.024;2023-05-09T01:25:04;101452.88;;;16.04;100.00
58534;BME280;44109;52.398;7.024;2023-05-09T01:27:47;101448.03;;;15.97;100.00
58534;BME280;44109;52.398;7.024;2023-05-09T01:30:25;101450.44;;;15.95;100.00
58534;BME280;44109;52.398;7.024;2023-05-09T01:32:58;101446.81;;;15.91;100.00
58534;BME280;44109;52.398;7.024;2023-05-09T01:35:29;101441.97;;;15.88;100.00
58534;BME280;44109;52.398;7.024;2023-05-09T01:38:05;101443.59;;;15.85;100.00
58534;BME280;44109;52.398;7.024;2023-05-09T01:40:41;101443.16;;;15.83;100.00
58534;BME280;44109;52.398;7.024;2023-05-09T01:43:15;101432.34;;;15.78;100.00
58534;BME280;44109;52.398;7.024;2023-05-09T01:45:47;101433.09;;;15.75;100.00
58534;BME280;44109;52.398;7.024;2023-05-09T01:48:17;101430.72;;;15.77;100.00
58534;BME280;44109;52.398;7.024;2023-05-09T01:50:47;101438.69;;;15.75;100.00
58534;BME280;44109;52.398;7.024;2023-05-09T01:53:16;101427.81;;;15.63;100.00
58534;BME280;44109;52.398;7.024;2023-05-09T01:55:44;101432.25;;;15.64;100.00
58534;BME280;44109;52.398;7.024;2023-05-09T01:58:14;101435.06;;;15.71;100.00
58534;BME280;44109;52.398;7.024;2023-05-09T02:00:44;101426.28;;;15.69;100.00
58534;BME280;44109;52.398;7.024;2023-05-09T02:03:19;101428.69;;;15.67;100.00
58534;BME280;44109;52.398;7.024;2023-05-09T02:05:49;101428.25;;;15.65;100.00
58534;BME280;44109;52.398;7.024;2023-05-09T02:08:17;101433.41;;;15.63;100.00
58534;BME280;44109;52.398;7.024;2023-05-09T02:10:47;101431.78;;;15.62;100.00
58534;BME280;44109;52.398;7.024;2023-05-09T02:13:15;101423.75;;;15.57;100.00
58534;BME280;44109;52.398;7.024;2023-05-09T02:15:44;101431.38;;;15.60;100.00
58534;BME280;44109;52.398;7.024;2023-05-09T02:18:13;101428.59;;;15.60;100.00
58534;BME280;44109;52.398;7.024;2023-05-09T02:20:42;101427.00;;;15.59;100.00
58534;BME280;44109;52.398;7.024;2023-05-09T02:23:09;101421.41;;;15.59;100.00
58534;BME280;44109;52.398;7.024;2023-05-09T02:25:38;101423.38;;;15.55;100.00
58534;BME280;44109;52.398;7.024;2023-05-09T02:28:07;101423.72;;;15.53;100.00
58534;BME280;44109;52.398;7.024;2023-05-09T02:30:40;101415.75;;;15.52;100.00
58534;BME280;44109;52.398;7.024;2023-05-09T02:33:12;101414.94;;;15.51;100.00
58534;BME280;44109;52.398;7.024;2023-05-09T02:35:42;101410.94;;;15.52;100.00
58534;BME280;44109;52.398;7.024;2023-05-09T02:38:13;101406.56;;;15.51;100.00
58534;BME280;44109;52.398;7.024;2023-05-09T02:40:46;101414.16;;;15.51;100.00
58534;BME280;44109;52.398;7.024;2023-05-09T02:43:13;101403.72;;;15.47;100.00
58534;BME280;44109;52.398;7.024;2023-05-09T02:45:41;101404.13;;;15.46;100.00
58534;BME280;44109;52.398;7.024;2023-05-09T02:48:09;101400.09;;;15.43;100.00
58534;BME280;44109;52.398;7.024;2023-05-09T02:50:38;101387.69;;;15.37;100.00
58534;BME280;44109;52.398;7.024;2023-05-09T02:53:07;101400.53;;;15.45;100.00
58534;BME280;44109;52.398;7.024;2023-05-09T02:55:35;101406.13;;;15.45;100.00
58534;BME280;44109;52.398;7.024;2023-05-09T02:58:03;101403.75;;;15.51;100.00
58534;BME280;44109;52.398;7.024;2023-05-09T03:00:31;101395.00;;;15.56;100.00
58534;BME280;44109;52.398;7.024;2023-05-09T03:02:59;101397.06;;;15.63;100.00
58534;BME280;44109;52.398;7.024;2023-05-09T03:05:27;101390.69;;;15.66;100.00
58534;BME280;44109;52.398;7.024;2023-05-09T03:07:56;101387.53;;;15.71;100.00
58534;BME280;44109;52.398;7.024;2023-05-09T03:10:23;101375.94;;;15.69;100.00
58534;BME280;44109;52.398;7.024;2023-05-09T03:12:51;101383.94;;;15.70;100.00
58534;BME280;44109;52.398;7.024;2023-05-09T03:15:19;101375.16;;;15.72;100.00
58534;BME280;44109;52.398;7.024;2023-05-09T03:17:47;101382.34;;;15.73;100.00
58534;BME280;44109;52.398;7.024;2023-05-09T03:20:14;101378.34;;;15.74;100.00
58534;BME280;44109;52.398;7.024;2023-05-09T03:22:42;101371.56;;;15.75;100.00
58534;BME280;44109;52.398;7.024;2023-05-09T03:25:11;101376.78;;;15.80;100.00
58534;BME280;44109;52.398;7.024;2023-05-09T03:27:39;101379.19;;;15.78;100.00
58534;BME280;44109;52.398;7.024;2023-05-09T03:30:07;101373.22;;;15.83;100.00
58534;BME280;44109;52.398;7.024;2023-05-09T03:32:36;101368.03;;;15.85;100.00
58534;BME280;44109;52.398;7.024;2023-05-09T03:35:04;101360.84;;;15.88;100.00
58534;BME280;44109;52.398;7.024;2023-05-09T03:37:32;101355.28;;;15.91;100.00
58534;BME280;44109;52.398;7.024;2023-05-09T03:40:00;101362.06;;;15.94;100.00
58534;BME280;44109;52.398;7.024;2023-05-09T03:42:29;101346.09;;;15.94;100.00
58534;BME280;44109;52.398;7.024;2023-05-09T03:44:56;101360.88;;;15.98;100.00
58534;BME280;44109;52.398;7.024;2023-05-09T03:47:24;101355.31;;;16.02;100.00
58534;BME280;44109;52.398;7.024;2023-05-09T03:49:52;101353.72;;;16.05;100.00
58534;BME280;44109;52.398;7.024;2023-05-09T03:52:19;101352.91;;;16.08;100.00
58534;BME280;44109;52.398;7.024;2023-05-09T03:54:47;101346.53;;;16.04;100.00
58534;BME280;44109;52.398;7.024;2023-05-09T03:57:14;101350.53;;;16.06;100.00
58534;BME280;44109;52.398;7.024;2023-05-09T03:59:43;101357.34;;;16.09;100.00
58534;BME280;44109;52.398;7.024;2023-05-09T04:02:11;101352.13;;;16.11;100.00
58534;BME280;44109;52.398;7.024;2023-05-09T04:04:39;101344.56;;;16.15;100.00
58534;BME280;44109;52.398;7.024;2023-05-09T04:07:06;101350.97;;;16.15;100.00
58534;BME280;44109;52.398;7.024;2023-05-09T04:09:35;101343.34;;;16.12;100.00
58534;BME280;44109;52.398;7.024;2023-05-09T04:12:02;101351.34;;;16.14;100.00
58534;BME280;44109;52.398;7.024;2023-05-09T04:14:30;101356.19;;;16.17;100.00
58534;BME280;44109;52.398;7.024;2023-05-09T04:16:59;101352.97;;;16.15;100.00
58534;BME280;44109;52.398;7.024;2023-05-09T04:19:27;101340.97;;;16.18;100.00
58534;BME280;44109;52.398;7.024;2023-05-09T04:21:54;101341.00;;;16.21;100.00
58534;BME280;44109;52.398;7.024;2023-05-09T04:24:22;101342.59;;;16.26;100.00
58534;BME280;44109;52.398;7.024;2023-05-09T04:26:50;101336.19;;;16.29;100.00
58534;BME280;44109;52.398;7.024;2023-05-09T04:29:17;101340.22;;;16.32;100.00
58534;BME280;44109;52.398;7.024;2023-05-09T04:31:45;101333.00;;;16.34;100.00
58534;BME280;44109;52.398;7.024;2023-05-09T04:34:14;101333.03;;;16.38;100.00
58534;BME280;44109;52.398;7.024;2023-05-09T04:36:41;101335.41;;;16.39;100.00
58534;BME280;44109;52.398;7.024;2023-05-09T04:39:09;101329.44;;;16.44;100.00
58534;BME280;44109;52.398;7.024;2023-05-09T04:41:37;101336.25;;;16.51;100.00
58534;BME280;44109;52.398;7.024;2023-05-09T04:44:05;101330.66;;;16.51;100.00
58534;BME280;44109;52.398;7.024;2023-05-09T04:46:33;101336.25;;;16.58;100.00
58534;BME280;44109;52.398;7.024;2023-05-09T04:49:00;101324.25;;;16.61;100.00
58534;BME280;44109;52.398;7.024;2023-05-09T04:51:29;101330.69;;;16.68;100.00
58534;BME280;44109;52.398;7.024;2023-05-09T04:53:57;101325.91;;;16.76;100.00
58534;BME280;44109;52.398;7.024;2023-05-09T04:56:25;101327.91;;;16.83;100.00
58534;BME280;44109;52.398;7.024;2023-05-09T04:58:53;101326.31;;;16.85;100.00
58534;BME280;44109;52.398;7.024;2023-05-09T05:01:20;101317.88;;;16.89;100.00
58534;BME280;44109;52.398;7.024;2023-05-09T05:03:48;101321.50;;;16.96;100.00
58534;BME280;44109;52.398;7.024;2023-05-09T05:06:16;101314.28;;;17.03;100.00
58534;BME280;44109;52.398;7.024;2023-05-09T05:08:45;101301.88;;;16.93;100.00
58534;BME280;44109;52.398;7.024;2023-05-09T05:11:12;101315.50;;;17.09;100.00
58534;BME280;44109;52.398;7.024;2023-05-09T05:13:42;101311.88;;;17.15;100.00
58534;BME280;44109;52.398;7.024;2023-05-09T05:16:10;101316.25;;;17.20;100.00
58534;BME280;44109;52.398;7.024;2023-05-09T05:18:37;101301.03;;;17.21;100.00
58534;BME280;44109;52.398;7.024;2023-05-09T05:21:05;101306.66;;;17.24;100.00
58534;BME280;44109;52.398;7.024;2023-05-09T05:23:33;101306.66;;;17.28;100.00
58534;BME280;44109;52.398;7.024;2023-05-09T05:26:02;101301.03;;;17.28;100.00
58534;BME280;44109;52.398;7.024;2023-05-09T05:28:30;101281.44;;;17.14;100.00
58534;BME280;44109;52.398;7.024;2023-05-09T05:30:58;101300.63;;;17.30;100.00
58534;BME280;44109;52.398;7.024;2023-05-09T05:33:26;101299.03;;;17.32;100.00
58534;BME280;44109;52.398;7.024;2023-05-09T05:35:53;101287.41;;;17.34;100.00
58534;BME280;44109;52.398;7.024;2023-05-09T05:38:21;101301.81;;;17.36;100.00
58534;BME280;44109;52.398;7.024;2023-05-09T05:40:49;101298.19;;;17.42;100.00
58534;BME280;44109;52.398;7.024;2023-05-09T05:43:18;101298.56;;;17.52;100.00
58534;BME280;44109;52.398;7.024;2023-05-09T05:45:45;101300.94;;;17.57;100.00
58534;BME280;44109;52.398;7.024;2023-05-09T05:48:13;101292.94;;;17.55;100.00
58534;BME280;44109;52.398;7.024;2023-05-09T05:50:41;101298.94;;;17.64;100.00
58534;BME280;44109;52.398;7.024;2023-05-09T05:53:08;101285.28;;;17.70;100.00
58534;BME280;44109;52.398;7.024;2023-05-09T05:55:36;101289.66;;;17.71;100.00
58534;BME280;44109;52.398;7.024;2023-05-09T05:58:04;101279.66;;;17.77;100.00
58534;BME280;44109;52.398;7.024;2023-05-09T06:00:33;101285.22;;;17.84;100.00
58534;BME280;44109;52.398;7.024;2023-05-09T06:03:01;101276.38;;;17.93;100.00
58534;BME280;44109;52.398;7.024;2023-05-09T06:05:28;101273.56;;;17.96;100.00
58534;BME280;44109;52.398;7.024;2023-05-09T06:07:56;101281.53;;;18.02;100.00
58534;BME280;44109;52.398;7.024;2023-05-09T06:10:24;101281.50;;;18.09;100.00
58534;BME280;44109;52.398;7.024;2023-05-09T06:12:51;101274.25;;;18.11;100.00
58534;BME280;44109;52.398;7.024;2023-05-09T06:15:19;101270.72;;;18.04;100.00
58534;BME280;44109;52.398;7.024;2023-05-09T06:17:48;101268.69;;;18.08;100.00
58534;BME280;44109;52.398;7.024;2023-05-09T06:20:16;101268.69;;;18.08;100.00
58534;BME280;44109;52.398;7.024;2023-05-09T06:22:44;101252.66;;;18.05;100.00
58534;BME280;44109;52.398;7.024;2023-05-09T06:25:11;101267.91;;;18.04;100.00
58534;BME280;44109;52.398;7.024;2023-05-09T06:27:41;101272.31;;;18.05;100.00
58534;BME280;44109;52.398;7.024;2023-05-09T06:30:09;101251.97;;;17.86;100.00
58534;BME280;44109;52.398;7.024;2023-05-09T06:32:37;101258.41;;;17.80;100.00
58534;BME280;44109;52.398;7.024;2023-05-09T06:35:06;101253.59;;;17.73;100.00
58534;BME280;44109;52.398;7.024;2023-05-09T06:37:34;101252.00;;;17.72;100.00
58534;BME280;44109;52.398;7.024;2023-05-09T06:40:02;101242.78;;;17.75;100.00
58534;BME280;44109;52.398;7.024;2023-05-09T06:42:31;101235.16;;;17.79;100.00
58534;BME280;44109;52.398;7.024;2023-05-09T06:44:58;101244.75;;;17.85;100.00
58534;BME280;44109;52.398;7.024;2023-05-09T06:47:26;101239.09;;;17.89;100.00
58534;BME280;44109;52.398;7.024;2023-05-09T06:49:53;101239.91;;;17.89;100.00
58534;BME280;44109;52.398;7.024;2023-05-09T06:52:22;101228.63;;;17.96;100.00
58534;BME280;44109;52.398;7.024;2023-05-09T06:54:50;101233.78;;;18.12;100.00
58534;BME280;44109;52.398;7.024;2023-05-09T06:57:18;101231.69;;;18.20;100.00
58534;BME280;44109;52.398;7.024;2023-05-09T06:59:46;101230.06;;;18.26;100.00
58534;BME280;44109;52.398;7.024;2023-05-09T07:02:13;101219.53;;;18.37;100.00
58534;BME280;44109;52.398;7.024;2023-05-09T07:04:41;101215.38;;;18.52;100.00
58534;BME280;44109;52.398;7.024;2023-05-09T07:07:09;101215.34;;;18.56;100.00
58534;BME280;44109;52.398;7.024;2023-05-09T07:09:38;101201.97;;;18.74;100.00
58534;BME280;44109;52.398;7.024;2023-05-09T07:12:06;101209.56;;;18.78;100.00
58534;BME280;44109;52.398;7.024;2023-05-09T07:14:34;101212.50;;;19.05;100.00
58534;BME280;44109;52.398;7.024;2023-05-09T07:17:01;101203.47;;;19.20;100.00
58534;BME280;44109;52.398;7.024;2023-05-09T07:19:29;101203.25;;;19.38;100.00
58534;BME280;44109;52.398;7.024;2023-05-09T07:21:57;101215.16;;;19.53;100.00
58534;BME280;44109;52.398;7.024;2023-05-09T07:24:24;101207.13;;;19.51;100.00
58534;BME280;44109;52.398;7.024;2023-05-09T07:26:53;101196.81;;;19.41;100.00
58534;BME280;44109;52.398;7.024;2023-05-09T07:29:21;101193.06;;;19.51;100.00
58534;BME280;44109;52.398;7.024;2023-05-09T07:31:49;101192.53;;;19.64;100.00
58534;BME280;44109;52.398;7.024;2023-05-09T07:34:16;101188.28;;;19.79;100.00
58534;BME280;44109;52.398;7.024;2023-05-09T07:36:44;101188.22;;;19.83;100.00
58534;BME280;44109;52.398;7.024;2023-05-09T07:39:12;101156.16;;;19.76;100.00
58534;BME280;44109;52.398;7.024;2023-05-09T07:41:40;101171.66;;;19.88;100.00
58534;BME280;44109;52.398;7.024;2023-05-09T07:44:09;101173.44;;;20.02;100.00
58534;BME280;44109;52.398;7.024;2023-05-09T07:46:37;101170.97;;;20.08;100.00
58534;BME280;44109;52.398;7.024;2023-05-09T07:49:07;101177.22;;;20.19;100.00
58534;BME280;44109;52.398;7.024;2023-05-09T07:51:34;101174.97;;;20.34;100.00
58534;BME280;44109;52.398;7.024;2023-05-09T07:54:02;101179.09;;;20.52;100.00
58534;BME280;44109;52.398;7.024;2023-05-09T07:56:30;101164.63;;;20.50;100.00
58534;BME280;44109;52.398;7.024;2023-05-09T07:58:57;101158.75;;;20.65;100.00
58534;BME280;44109;52.398;7.024;2023-05-09T08:01:26;101162.81;;;20.84;100.00
58534;BME280;44109;52.398;7.024;2023-05-09T08:03:54;101153.72;;;20.96;100.00
58534;BME280;44109;52.398;7.024;2023-05-09T08:06:22;101152.41;;;21.00;100.00
58534;BME280;44109;52.398;7.024;2023-05-09T08:08:49;101150.25;;;20.88;100.00
58534;BME280;44109;52.398;7.024;2023-05-09T08:11:17;101148.88;;;20.96;100.00
58534;BME280;44109;52.398;7.024;2023-05-09T08:13:45;101142.81;;;21.18;100.00
58534;BME280;44109;52.398;7.024;2023-05-09T08:16:13;101139.38;;;21.46;100.00
58534;BME280;44109;52.398;7.024;2023-05-09T08:18:44;101136.69;;;21.59;100.00
58534;BME280;44109;52.398;7.024;2023-05-09T08:21:12;101134.59;;;21.79;100.00
58534;BME280;44109;52.398;7.024;2023-05-09T08:23:39;101122.16;;;21.93;100.00
58534;BME280;44109;52.398;7.024;2023-05-09T08:26:07;101128.19;;;22.12;100.00
58534;BME280;44109;52.398;7.024;2023-05-09T08:28:34;101123.97;;;22.20;100.00
58534;BME280;44109;52.398;7.024;2023-05-09T08:31:02;101115.94;;;22.18;100.00
58534;BME280;44109;52.398;7.024;2023-05-09T08:33:30;101118.75;;;22.18;100.00
58534;BME280;44109;52.398;7.024;2023-05-09T08:35:59;101122.97;;;22.10;100.00
58534;BME280;44109;52.398;7.024;2023-05-09T08:38:27;101109.97;;;21.96;100.00
58534;BME280;44109;52.398;7.024;2023-05-09T08:40:58;101110.41;;;21.78;100.00
58534;BME280;44109;52.398;7.024;2023-05-09T08:43:27;101113.50;;;21.68;100.00
58534;BME280;44109;52.398;7.024;2023-05-09T08:45:57;101113.25;;;21.62;100.00
58534;BME280;44109;52.398;7.024;2023-05-09T08:48:27;101108.47;;;21.75;100.00
58534;BME280;44109;52.398;7.024;2023-05-09T08:50:55;101107.84;;;21.84;100.00
58534;BME280;44109;52.398;7.024;2023-05-09T08:53:25;101097.00;;;21.83;100.00
58534;BME280;44109;52.398;7.024;2023-05-09T08:55:53;101093.31;;;21.86;100.00
58534;BME280;44109;52.398;7.024;2023-05-09T08:58:21;101094.78;;;22.07;100.00
58534;BME280;44109;52.398;7.024;2023-05-09T09:00:49;101095.06;;;22.28;100.00
58534;BME280;44109;52.398;7.024;2023-05-09T09:03:18;101094.97;;;22.32;100.00
58534;BME280;44109;52.398;7.024;2023-05-09T09:05:47;101093.03;;;22.29;98.80
58534;BME280;44109;52.398;7.024;2023-05-09T09:08:16;101092.50;;;22.34;100.00
58534;BME280;44109;52.398;7.024;2023-05-09T09:10:46;101085.34;;;21.97;99.38
58534;BME280;44109;52.398;7.024;2023-05-09T09:13:16;101087.06;;;21.94;100.00
58534;BME280;44109;52.398;7.024;2023-05-09T09:15:45;101079.63;;;21.84;100.00
58534;BME280;44109;52.398;7.024;2023-05-09T09:18:17;101077.31;;;21.79;100.00
58534;BME280;44109;52.398;7.024;2023-05-09T09:20:51;101081.28;;;21.49;100.00
58534;BME280;44109;52.398;7.024;2023-05-09T09:23:24;101082.25;;;21.02;100.00
58534;BME280;44109;52.398;7.024;2023-05-09T09:25:58;101082.84;;;21.14;100.00
58534;BME280;44109;52.398;7.024;2023-05-09T09:28:27;101079.84;;;21.21;100.00
58534;BME280;44109;52.398;7.024;2023-05-09T09:30:58;101078.78;;;21.15;100.00
58534;BME280;44109;52.398;7.024;2023-05-09T09:33:28;101073.00;;;21.22;100.00
58534;BME280;44109;52.398;7.024;2023-05-09T09:35:56;101067.88;;;21.17;100.00
58534;BME280;44109;52.398;7.024;2023-05-09T09:38:24;101061.13;;;21.11;100.00
58534;BME280;44109;52.398;7.024;2023-05-09T09:40:53;101054.69;;;21.10;100.00
58534;BME280;44109;52.398;7.024;2023-05-09T09:43:27;101062.50;;;21.22;100.00
58534;BME280;44109;52.398;7.024;2023-05-09T09:45:56;101051.97;;;21.43;100.00
58534;BME280;44109;52.398;7.024;2023-05-09T09:48:30;101049.09;;;21.63;100.00
58534;BME280;44109;52.398;7.024;2023-05-09T09:51:04;101042.44;;;22.02;100.00
58534;BME280;44109;52.398;7.024;2023-05-09T09:53:39;101038.84;;;22.18;100.00
58534;BME280;44109;52.398;7.024;2023-05-09T09:56:07;101029.56;;;22.46;100.00
58534;BME280;44109;52.398;7.024;2023-05-09T09:58:36;101035.88;;;22.79;100.00
58534;BME280;44109;52.398;7.024;2023-05-09T10:01:05;101028.75;;;23.04;100.00
58534;BME280;44109;52.398;7.024;2023-05-09T10:03:37;101021.38;;;23.19;100.00
58534;BME280;44109;52.398;7.024;2023-05-09T10:06:08;101020.72;;;23.28;98.37
58534;BME280;44109;52.398;7.024;2023-05-09T10:08:37;101008.50;;;23.31;91.39
58534;BME280;44109;52.398;7.024;2023-05-09T10:11:05;101018.56;;;23.45;94.96
58534;BME280;44109;52.398;7.024;2023-05-09T10:13:34;101002.59;;;23.38;92.85
58534;BME280;44109;52.398;7.024;2023-05-09T10:16:05;101005.03;;;23.62;93.52
58534;BME280;44109;52.398;7.024;2023-05-09T10:18:35;101000.41;;;23.81;90.09
58534;BME280;44109;52.398;7.024;2023-05-09T10:21:04;100999.91;;;23.95;91.55
58534;BME280;44109;52.398;7.024;2023-05-09T10:23:42;100991.69;;;24.10;88.45
58534;BME280;44109;52.398;7.024;2023-05-09T10:26:16;100999.38;;;24.22;90.21
58534;BME280;44109;52.398;7.024;2023-05-09T10:28:54;100989.25;;;24.21;87.06
58534;BME280;44109;52.398;7.024;2023-05-09T10:31:27;100986.81;;;24.10;85.04
58534;BME280;44109;52.398;7.024;2023-05-09T10:34:00;100978.19;;;23.79;84.09
58534;BME280;44109;52.398;7.024;2023-05-09T10:36:36;100976.69;;;23.87;83.37
58534;BME280;44109;52.398;7.024;2023-05-09T10:39:04;100979.47;;;24.13;84.73
58534;BME280;44109;52.398;7.024;2023-05-09T10:41:33;100972.34;;;24.30;83.46
58534;BME280;44109;52.398;7.024;2023-05-09T10:44:02;100965.44;;;24.53;84.61
58534;BME280;44109;52.398;7.024;2023-05-09T10:46:31;100956.53;;;24.64;82.33
58534;BME280;44109;52.398;7.024;2023-05-09T10:49:00;100957.66;;;24.44;79.45
58534;BME280;44109;52.398;7.024;2023-05-09T10:51:28;100964.50;;;24.56;81.50
58534;BME280;44109;52.398;7.024;2023-05-09T10:53:56;100953.94;;;24.57;79.36
58534;BME280;44109;52.398;7.024;2023-05-09T10:56:24;100950.00;;;24.32;77.51
58534;BME280;44109;52.398;7.024;2023-05-09T10:58:55;100950.63;;;24.49;79.27
58534;BME280;44109;52.398;7.024;2023-05-09T11:01:31;100942.28;;;24.54;76.89
58534;BME280;44109;52.398;7.024;2023-05-09T11:04:08;100935.44;;;24.74;79.29
58534;BME280;44109;52.398;7.024;2023-05-09T11:06:43;100928.41;;;24.88;79.05
58534;BME280;44109;52.398;7.024;2023-05-09T11:09:22;100932.50;;;25.09;80.72
58534;BME280;44109;52.398;7.024;2023-05-09T11:11:53;100929.91;;;25.01;77.42
58534;BME280;44109;52.398;7.024;2023-05-09T11:14:31;100922.00;;;24.96;79.44
58534;BME280;44109;52.398;7.024;2023-05-09T11:17:02;100922.22;;;24.71;80.06
58534;BME280;44109;52.398;7.024;2023-05-09T11:19:56;100918.34;;;24.55;79.34
58534;BME280;44109;52.398;7.024;2023-05-09T11:22:26;100912.66;;;24.55;78.90
58534;BME280;44109;52.398;7.024;2023-05-09T11:25:02;100914.78;;;24.42;77.60
58534;BME280;44109;52.398;7.024;2023-05-09T11:27:39;100901.78;;;23.88;82.01
58534;BME280;44109;52.398;7.024;2023-05-09T11:30:10;100901.13;;;23.37;83.97
58534;BME280;44109;52.398;7.024;2023-05-09T11:32:44;100904.25;;;23.04;87.70
58534;BME280;44109;52.398;7.024;2023-05-09T11:35:14;100901.44;;;22.37;93.25
58534;BME280;44109;52.398;7.024;2023-05-09T11:37:45;100898.69;;;21.62;100.00
58534;BME280;44109;52.398;7.024;2023-05-09T11:40:15;100890.72;;;20.92;100.00
58534;BME280;44109;52.398;7.024;2023-05-09T11:42:45;100878.81;;;20.68;100.00
58534;BME280;44109;52.398;7.024;2023-05-09T11:45:16;100861.13;;;20.47;100.00
58534;BME280;44109;52.398;7.024;2023-05-09T11:47:46;100869.38;;;20.38;100.00
58534;BME280;44109;52.398;7.024;2023-05-09T11:50:16;100867.94;;;20.30;100.00
58534;BME280;44109;52.398;7.024;2023-05-09T11:52:46;100871.03;;;20.36;100.00
58534;BME280;44109;52.398;7.024;2023-05-09T11:55:15;100851.63;;;20.21;100.00
58534;BME280;44109;52.398;7.024;2023-05-09T11:57:46;100866.53;;;20.38;100.00
58534;BME280;44109;52.398;7.024;2023-05-09T12:00:16;100864.63;;;20.35;100.00
58534;BME280;44109;52.398;7.024;2023-05-09T12:02:46;100864.69;;;20.32;100.00
58534;BME280;44109;52.398;7.024;2023-05-09T12:05:16;100855.97;;;20.26;100.00
58534;BME280;44109;52.398;7.024;2023-05-09T12:07:46;100836.66;;;20.24;100.00
58534;BME280;44109;52.398;7.024;2023-05-09T12:10:15;100836.16;;;20.49;100.00
58534;BME280;44109;52.398;7.024;2023-05-09T12:12:46;100833.69;;;20.84;100.00
58534;BME280;44109;52.398;7.024;2023-05-09T12:15:16;100835.28;;;21.18;100.00
58534;BME280;44109;52.398;7.024;2023-05-09T12:17:45;100829.13;;;21.39;100.00
58534;BME280;44109;52.398;7.024;2023-05-09T12:20:14;100831.91;;;21.56;100.00
58534;BME280;44109;52.398;7.024;2023-05-09T12:22:42;100824.97;;;21.73;100.00
58534;BME280;44109;52.398;7.024;2023-05-09T12:25:10;100820.84;;;21.90;100.00
58534;BME280;44109;52.398;7.024;2023-05-09T12:27:39;100821.13;;;22.09;100.00
58534;BME280;44109;52.398;7.024;2023-05-09T12:30:08;100807.84;;;22.22;100.00
58534;BME280;44109;52.398;7.024;2023-05-09T12:32:39;100805.94;;;22.44;100.00
58534;BME280;44109;52.398;7.024;2023-05-09T12:35:09;100802.97;;;22.61;100.00
58534;BME280;44109;52.398;7.024;2023-05-09T12:37:37;100808.81;;;22.79;100.00
58534;BME280;44109;52.398;7.024;2023-05-09T12:40:10;100802.94;;;22.86;100.00
58534;BME280;44109;52.398;7.024;2023-05-09T12:42:43;100794.59;;;22.95;100.00
58534;BME280;44109;52.398;7.024;2023-05-09T12:45:11;100801.00;;;23.09;100.00
58534;BME280;44109;52.398;7.024;2023-05-09T12:47:39;100798.94;;;23.22;100.00
58534;BME280;44109;52.398;7.024;2023-05-09T12:50:09;100789.50;;;23.25;100.00
58534;BME280;44109;52.398;7.024;2023-05-09T12:52:40;100799.88;;;23.41;100.00